createdAt,value
2019-05-18T06:20:09.151Z,33.33
2019-05-18T06:22:40.908Z,34.27
2019-05-18T06:25:12.716Z,33.55
2019-05-18T06:50:30.904Z,31.12
2019-05-18T06:53:02.759Z,26.07
2019-05-18T06:55:35.226Z,27.62
2019-05-18T06:58:07.474Z,26.45
2019-05-18T07:00:39.104Z,28.77
2019-05-18T07:03:10.513Z,26.05
2019-05-18T07:05:42.386Z,26.60
2019-05-18T07:08:15.097Z,25.68
2019-05-18T07:10:46.444Z,27.13
2019-05-18T07:13:17.964Z,28.35
2019-05-18T07:15:50.837Z,27.10
2019-05-18T07:18:22.424Z,28.40
2019-05-18T07:20:54.215Z,27.42
2019-05-18T07:23:25.716Z,28.23
2019-05-18T07:25:57.196Z,27.30
2019-05-18T07:28:28.729Z,27.02
2019-05-18T07:31:00.291Z,26.55
2019-05-18T07:33:32.154Z,28.17
2019-05-18T07:36:04.531Z,26.60
2019-05-18T07:38:35.825Z,27.30
2019-05-18T07:41:07.140Z,28.45
2019-05-18T07:43:38.483Z,28.60
2019-05-18T07:46:09.971Z,27.93
2019-05-18T07:48:41.469Z,28.85
2019-05-18T07:51:13.078Z,28.60
2019-05-18T07:53:45.917Z,28.42
2019-05-18T07:56:17.558Z,30.45
2019-05-18T07:58:49.938Z,31.87
2019-05-18T08:01:21.335Z,28.67
2019-05-18T08:03:52.934Z,29.18
2019-05-18T08:06:24.547Z,32.48
2019-05-18T08:08:56.483Z,30.75
2019-05-18T08:11:28.209Z,31.45
2019-05-18T08:13:59.502Z,31.33
2019-05-18T08:16:31.359Z,31.68
2019-05-18T08:19:03.027Z,30.02
2019-05-18T08:21:34.765Z,32.15
2019-05-18T08:24:06.533Z,30.92
2019-05-18T08:26:37.965Z,31.55
2019-05-18T08:29:09.301Z,29.00
2019-05-18T08:31:41.011Z,29.92
2019-05-18T08:34:12.826Z,26.23
2019-05-18T08:36:44.140Z,25.10
2019-05-18T08:39:15.802Z,27.17
2019-05-18T08:41:49.349Z,29.48
2019-05-18T08:44:21.748Z,27.25
2019-05-18T08:46:53.248Z,24.82
2019-05-18T08:49:24.748Z,24.25
2019-05-18T08:52:07.498Z,19.27
2019-05-18T08:54:29.299Z,18.23
2019-05-18T08:57:01.051Z,20.68
2019-05-18T08:59:32.878Z,19.87
2019-05-18T09:02:05.529Z,21.45
2019-05-18T09:04:36.842Z,16.73
2019-05-18T09:07:09.274Z,18.55
2019-05-18T09:09:40.746Z,18.32
2019-05-18T09:12:13.262Z,15.60
2019-05-18T09:14:44.958Z,14.03
2019-05-18T09:17:16.573Z,17.40
2019-05-18T09:19:48.555Z,19.27
2019-05-18T09:22:23.248Z,19.17
2019-05-18T09:24:53.195Z,19.32
2019-05-18T09:27:25.704Z,17.80
2019-05-18T09:29:57.197Z,16.35
2019-05-18T09:32:28.517Z,15.03
2019-05-18T09:35:00.423Z,15.60
2019-05-18T09:37:32.253Z,13.03
2019-05-18T09:40:04.330Z,12.68
2019-05-18T09:42:35.769Z,12.50
2019-05-18T09:45:09.035Z,13.38
2019-05-18T09:47:40.681Z,11.22
2019-05-18T09:50:12.812Z,11.88
2019-05-18T09:52:45.967Z,11.25
2019-05-18T09:55:18.401Z,12.10
2019-05-18T09:57:50.066Z,11.75
2019-05-18T10:00:21.747Z,10.00
2019-05-18T10:02:53.121Z,11.80
2019-05-18T10:08:44.710Z,10.45
2019-05-18T10:11:16.070Z,11.20
2019-05-18T10:13:47.957Z,10.72
2019-05-18T10:16:19.216Z,9.10
2019-05-18T10:18:51.701Z,8.38
2019-05-18T10:21:23.022Z,8.78
2019-05-18T10:23:54.447Z,9.43
2019-05-18T10:26:25.899Z,8.48
2019-05-18T10:28:57.759Z,8.20
2019-05-18T10:31:29.274Z,9.10
2019-05-18T10:34:01.029Z,8.10
2019-05-18T10:36:32.417Z,8.28
2019-05-18T10:39:04.504Z,8.35
2019-05-18T10:41:35.938Z,9.58
2019-05-18T10:44:07.260Z,8.10
2019-05-18T10:49:50.389Z,9.23
2019-05-18T11:13:07.657Z,10.13
2019-05-18T11:15:38.963Z,9.60
2019-05-18T11:18:10.384Z,8.18
2019-05-18T11:20:42.125Z,8.83
2019-05-18T11:23:14.080Z,11.25
2019-05-18T11:25:45.561Z,9.45
2019-05-18T11:28:17.283Z,8.63
2019-05-18T11:30:49.040Z,9.15
2019-05-18T11:33:20.316Z,8.30
2019-05-18T11:35:51.929Z,8.73
2019-05-18T11:38:23.261Z,8.45
2019-05-18T11:40:54.574Z,8.75
2019-05-18T11:43:26.369Z,8.70
2019-05-18T11:45:58.863Z,8.65
2019-05-18T11:48:31.035Z,8.88
2019-05-18T11:51:02.519Z,8.40
2019-05-18T11:53:34.216Z,8.93
2019-05-18T11:56:06.114Z,10.78
2019-05-18T11:58:38.075Z,9.18
2019-05-18T12:01:10.210Z,7.80
2019-05-18T12:03:41.647Z,7.90
2019-05-18T12:06:13.094Z,8.58
2019-05-18T12:08:44.969Z,8.48
2019-05-18T12:11:16.249Z,8.00
2019-05-18T12:13:47.723Z,7.97
2019-05-18T12:16:18.990Z,8.53
2019-05-18T12:18:50.361Z,7.80
2019-05-18T12:21:21.797Z,9.10
2019-05-18T12:23:53.343Z,7.90
2019-05-18T12:26:24.839Z,8.38
2019-05-18T12:28:56.234Z,8.38
2019-05-18T12:31:29.088Z,8.90
2019-05-18T12:34:00.650Z,8.55
2019-05-18T12:36:33.439Z,8.33
2019-05-18T12:39:06.450Z,9.15
2019-05-18T12:41:38.299Z,9.73
2019-05-18T12:44:09.642Z,10.00
2019-05-18T12:46:41.238Z,10.13
2019-05-18T12:49:12.720Z,11.10
2019-05-18T12:51:44.823Z,10.75
2019-05-18T12:54:28.689Z,12.00
2019-05-18T12:56:49.440Z,11.75
2019-05-18T12:59:21.717Z,11.33
2019-05-18T13:01:53.181Z,11.60
2019-05-18T13:04:24.449Z,11.43
2019-05-18T13:06:56.240Z,11.68
2019-05-18T13:09:27.603Z,11.08
2019-05-18T13:11:59.507Z,11.30
2019-05-18T13:14:31.531Z,10.32
2019-05-18T13:17:03.005Z,10.82
2019-05-18T13:19:34.417Z,10.08
2019-05-18T13:22:05.889Z,9.68
2019-05-18T13:24:45.455Z,9.50
2019-05-18T13:27:10.280Z,9.88
2019-05-18T13:29:43.420Z,9.15
2019-05-18T13:32:14.727Z,9.50
2019-05-18T13:34:46.244Z,9.55
2019-05-18T13:37:26.851Z,10.32
2019-05-18T13:40:06.671Z,8.70
2019-05-18T13:42:38.013Z,9.40
2019-05-18T13:45:10.378Z,9.55
2019-05-18T13:47:42.237Z,10.10
2019-05-18T13:50:14.022Z,9.30
2019-05-18T13:52:45.357Z,10.85
2019-05-18T13:55:16.669Z,10.03
2019-05-18T13:57:48.086Z,9.23
2019-05-18T14:00:20.477Z,10.63
2019-05-18T14:02:52.217Z,9.78
2019-05-18T14:05:23.794Z,9.85
2019-05-18T14:07:55.183Z,9.03
2019-05-18T14:10:26.786Z,9.18
2019-05-18T14:12:58.235Z,9.35
2019-05-18T14:15:29.626Z,9.58
2019-05-18T14:18:01.089Z,9.78
2019-05-18T14:20:32.483Z,9.38
2019-05-18T14:23:03.943Z,10.20
2019-05-18T14:25:35.550Z,9.13
2019-05-18T14:28:07.185Z,8.60
2019-05-18T14:30:38.502Z,8.28
2019-05-18T14:33:10.149Z,8.33
2019-05-18T14:35:41.764Z,8.53
2019-05-18T14:38:13.056Z,8.05
2019-05-18T14:40:44.366Z,8.35
2019-05-18T14:43:15.650Z,8.33
2019-05-18T14:45:49.059Z,7.60
2019-05-18T14:48:20.519Z,8.70
2019-05-18T14:50:51.900Z,8.18
2019-05-18T14:53:23.190Z,8.13
2019-05-18T14:55:54.630Z,8.58
2019-05-18T14:58:27.185Z,7.83
2019-05-18T15:00:58.955Z,7.78
2019-05-18T15:03:30.378Z,8.48
2019-05-18T15:06:01.813Z,7.78
2019-05-18T15:08:33.661Z,7.70
2019-05-18T15:11:05.026Z,7.37
2019-05-18T15:13:36.872Z,8.75
2019-05-18T15:16:08.479Z,24.27
2019-05-18T15:18:40.198Z,11.97
2019-05-18T15:21:11.780Z,9.93
2019-05-18T15:23:43.793Z,12.82
2019-05-18T15:26:15.204Z,10.72
2019-05-18T15:28:46.750Z,11.55
2019-05-18T15:31:18.743Z,10.65
2019-05-18T15:33:50.252Z,10.28
2019-05-18T15:36:21.893Z,10.65
2019-05-18T15:38:53.927Z,10.28
2019-05-18T15:41:25.445Z,11.03
2019-05-18T15:43:57.000Z,11.55
2019-05-18T15:46:28.799Z,10.20
2019-05-18T15:49:00.413Z,10.95
2019-05-18T15:51:32.487Z,11.00
2019-05-18T15:54:04.025Z,10.45
2019-05-18T15:56:35.489Z,9.03
2019-05-18T15:59:07.444Z,9.50
2019-05-18T16:01:39.165Z,8.80
2019-05-18T16:04:10.593Z,9.25
2019-05-18T16:06:42.123Z,10.55
2019-05-18T16:09:13.850Z,9.35
2019-05-18T16:11:45.315Z,9.80
2019-05-18T16:14:16.685Z,9.38
2019-05-18T16:16:48.302Z,10.18
2019-05-18T16:19:19.901Z,10.20
2019-05-18T16:21:52.621Z,9.53
2019-05-18T16:24:28.244Z,9.53
2019-05-18T16:27:01.331Z,10.35
2019-05-18T16:29:33.494Z,9.05
2019-05-18T16:32:06.653Z,10.32
2019-05-18T16:34:39.475Z,11.18
2019-05-18T16:37:10.944Z,10.38
2019-05-18T16:39:43.791Z,10.85
2019-05-18T16:42:15.528Z,11.40
2019-05-18T16:44:48.470Z,9.70
2019-05-18T16:47:19.772Z,10.35
2019-05-18T16:49:51.823Z,11.75
2019-05-18T16:52:23.529Z,11.95
2019-05-18T16:54:56.667Z,13.32
2019-05-18T16:57:28.730Z,13.75
2019-05-18T17:00:00.589Z,13.83
2019-05-18T17:02:32.806Z,13.72
2019-05-18T17:05:04.779Z,12.98
2019-05-18T17:07:37.429Z,12.82
2019-05-18T17:10:09.441Z,12.13
2019-05-18T17:12:40.809Z,11.85
2019-05-18T17:15:18.265Z,12.03
2019-05-18T17:17:49.661Z,12.23
2019-05-18T17:20:21.734Z,12.13
2019-05-18T17:22:53.452Z,11.60
2019-05-18T17:25:25.189Z,12.68
2019-05-18T17:27:56.525Z,12.10
2019-05-18T17:30:28.196Z,11.45
2019-05-18T17:33:00.038Z,12.47
2019-05-18T17:35:32.619Z,11.38
2019-05-18T17:38:04.590Z,12.05
2019-05-18T17:40:36.457Z,12.88
2019-05-18T17:43:08.074Z,12.20
2019-05-18T17:45:39.540Z,12.30
2019-05-18T17:48:11.070Z,11.53
2019-05-18T17:50:42.803Z,12.55
2019-05-18T17:53:15.175Z,11.68
2019-05-18T17:55:46.529Z,12.10
2019-05-18T17:58:18.734Z,12.58
2019-05-18T18:00:50.034Z,12.75
2019-05-18T18:03:22.336Z,13.10
2019-05-18T18:05:53.800Z,13.03
2019-05-18T18:08:25.509Z,12.90
2019-05-18T18:10:56.918Z,13.35
2019-05-18T18:13:28.737Z,13.85
2019-05-18T18:16:00.153Z,13.48
2019-05-18T18:18:34.773Z,12.73
2019-05-18T18:21:05.258Z,13.70
2019-05-18T18:23:37.098Z,14.78
2019-05-18T18:26:08.470Z,14.15
2019-05-18T18:28:39.958Z,13.95
2019-05-18T18:31:12.900Z,15.45
2019-05-18T18:33:44.698Z,14.43
2019-05-18T18:36:16.249Z,14.25
2019-05-18T18:38:47.653Z,15.15
2019-05-18T18:41:19.008Z,15.63
2019-05-18T18:43:53.062Z,15.68
2019-05-18T18:46:24.347Z,14.95
2019-05-18T18:48:55.901Z,15.72
2019-05-18T18:51:27.835Z,15.23
2019-05-18T18:53:59.379Z,16.45
2019-05-18T18:56:31.619Z,17.00
2019-05-18T18:59:03.382Z,16.65
2019-05-18T19:01:35.113Z,17.35
2019-05-18T19:04:07.005Z,17.85
2019-05-18T19:06:40.002Z,16.95
2019-05-18T19:09:12.611Z,17.20
2019-05-18T19:11:43.899Z,17.20
2019-05-18T19:14:15.198Z,17.52
2019-05-18T19:16:46.829Z,18.57
2019-05-18T19:19:18.649Z,17.73
2019-05-18T19:21:50.417Z,18.77
2019-05-18T19:24:21.955Z,19.05
2019-05-18T19:26:53.476Z,18.30
2019-05-18T19:29:24.934Z,18.32
2019-05-18T19:31:57.884Z,18.80
2019-05-18T19:34:31.095Z,18.50
2019-05-18T19:37:04.037Z,19.07
2019-05-18T19:39:35.812Z,17.62
2019-05-18T19:42:07.948Z,19.07
2019-05-18T19:44:40.113Z,18.85
2019-05-18T19:47:11.789Z,19.65
2019-05-18T19:49:43.251Z,18.37
2019-05-18T19:52:14.726Z,20.37
2019-05-18T19:54:46.407Z,19.80
2019-05-18T19:57:18.346Z,19.73
2019-05-18T19:59:49.889Z,18.62
2019-05-18T20:02:21.162Z,19.77
2019-05-18T20:05:06.352Z,20.97
2019-05-18T20:07:25.935Z,19.02
2019-05-18T20:09:57.414Z,19.62
2019-05-18T20:12:30.709Z,19.30
2019-05-18T20:15:02.664Z,18.50
2019-05-18T20:17:36.333Z,18.40
2019-05-18T20:20:09.597Z,18.65
2019-05-18T20:22:41.225Z,19.32
2019-05-18T20:25:13.766Z,19.35
2019-05-18T20:27:46.324Z,19.17
2019-05-18T20:30:17.970Z,19.07
2019-05-18T20:32:49.554Z,18.52
2019-05-18T20:35:21.634Z,18.25
2019-05-18T20:37:53.133Z,19.35
2019-05-18T20:40:24.986Z,20.75
2019-05-18T20:43:02.637Z,18.65
2019-05-18T20:45:34.514Z,20.12
2019-05-18T20:48:06.379Z,19.62
2019-05-18T20:50:39.540Z,20.60
2019-05-18T20:53:11.405Z,22.22
2019-05-18T20:55:43.317Z,22.62
2019-05-18T20:58:14.800Z,22.42
2019-05-18T21:00:47.701Z,23.00
2019-05-18T21:03:19.174Z,22.95
2019-05-18T21:05:51.859Z,23.38
2019-05-18T21:08:23.557Z,23.05
2019-05-18T21:10:55.057Z,22.17
2019-05-18T21:13:26.325Z,22.58
2019-05-18T21:15:57.862Z,21.87
2019-05-18T21:18:29.680Z,22.90
2019-05-18T21:21:01.208Z,23.47
2019-05-18T21:23:33.093Z,23.77
2019-05-18T21:26:04.419Z,22.25
2019-05-18T21:28:36.321Z,21.87
2019-05-18T21:31:07.756Z,22.85
2019-05-18T21:33:39.576Z,23.65
2019-05-18T21:36:11.531Z,23.45
2019-05-18T21:38:43.235Z,23.40
2019-05-18T21:41:15.040Z,23.73
2019-05-18T21:43:46.463Z,25.08
2019-05-18T21:46:18.138Z,26.25
2019-05-18T21:48:50.986Z,27.73
2019-05-18T21:51:22.597Z,28.70
2019-05-18T21:53:54.229Z,28.00
2019-05-18T21:56:25.543Z,28.05
2019-05-18T21:59:10.559Z,27.85
2019-05-18T22:01:31.224Z,29.48
2019-05-18T22:04:02.708Z,29.72
2019-05-18T22:06:35.426Z,28.45
2019-05-18T22:09:07.839Z,27.30
2019-05-18T22:11:39.374Z,29.37
2019-05-18T22:14:10.938Z,29.20
2019-05-18T22:16:42.466Z,30.08
2019-05-18T22:19:15.529Z,29.92
2019-05-18T22:21:47.049Z,30.85
2019-05-18T22:24:19.089Z,31.65
2019-05-18T22:26:50.602Z,27.37
2019-05-18T22:29:21.975Z,25.55
2019-05-18T22:31:53.692Z,24.65
2019-05-18T22:34:25.109Z,23.57
2019-05-18T22:36:56.729Z,22.13
2019-05-18T22:39:28.171Z,21.27
2019-05-18T22:41:59.481Z,21.75
2019-05-18T22:44:31.161Z,20.43
2019-05-18T22:47:02.713Z,21.00
2019-05-18T22:49:34.246Z,19.90
2019-05-18T22:52:05.744Z,20.27
2019-05-18T22:54:37.380Z,20.15
2019-05-18T22:57:09.234Z,20.17
2019-05-18T22:59:40.541Z,19.45
2019-05-18T23:02:12.039Z,19.40
2019-05-18T23:04:44.038Z,19.45
2019-05-18T23:07:15.849Z,19.20
2019-05-18T23:09:47.287Z,18.07
2019-05-18T23:12:18.557Z,18.98
2019-05-18T23:14:50.263Z,18.48
2019-05-18T23:17:22.001Z,17.70
2019-05-18T23:19:53.887Z,17.73
2019-05-18T23:22:25.537Z,18.12
2019-05-18T23:24:57.222Z,17.20
2019-05-18T23:27:28.945Z,18.42
2019-05-18T23:30:00.508Z,18.02
2019-05-18T23:32:33.012Z,16.27
2019-05-18T23:35:04.780Z,16.90
2019-05-18T23:37:36.260Z,17.67
2019-05-18T23:40:09.130Z,17.92
2019-05-18T23:42:40.542Z,17.37
2019-05-18T23:45:12.401Z,16.93
2019-05-18T23:47:44.078Z,17.50
2019-05-18T23:50:15.387Z,16.93
2019-05-18T23:52:47.076Z,16.70
2019-05-18T23:55:18.663Z,17.98
2019-05-18T23:57:50.130Z,17.23
